Time;durP1;ratioP1;P1;durP2;ratioP2;P2;SDS_P1;SDS_P2;PMS_P1;PMS_P2;Temp;Humidity;BMP_temperature;BMP_pressure;BME280_temperature;BME280_humidity;BME280_pressure;Samples;Min_cycle;Max_cycle;Signal;HPM_P1;HPM_P2
2021/12/27 00:01:01;;;;;;;20.58;12.15;;;;;;;;;;5053537;28;20549;-64
2021/12/27 00:03:27;;;;;;;20.25;11.70;;;;;;;;;;5052530;28;20090;-65
2021/12/27 00:05:53;;;;;;;20.38;11.38;;;0.70;99.90;;;;;;5032302;28;20041;-65
2021/12/27 00:08:18;;;;;;;18.60;12.05;;;0.70;99.90;;;;;;5051566;28;20029;-64
2021/12/27 00:10:44;;;;;;;22.42;12.20;;;0.70;99.90;;;;;;5050807;28;20033;-65
2021/12/27 00:13:10;;;;;;;19.40;11.68;;;;;;;;;;5052926;28;20065;-64
2021/12/27 00:15:36;;;;;;;19.77;12.00;;;0.80;99.90;;;;;;5051533;28;20040;-64
2021/12/27 00:18:03;;;;;;;20.88;11.73;;;;;;;;;;5050959;28;20708;-64
2021/12/27 00:20:29;;;;;;;20.67;11.75;;;;;;;;;;5051018;28;20132;-63
2021/12/27 00:22:55;;;;;;;21.77;13.20;;;;;;;;;;5050646;28;20120;-64
2021/12/27 00:25:21;;;;;;;24.00;12.43;;;;;;;;;;5050038;28;20406;-64
2021/12/27 00:27:47;;;;;;;20.27;11.98;;;;;;;;;;5049070;28;20128;-63
2021/12/27 00:30:15;;;;;;;20.58;11.98;;;0.30;99.90;;;;;;5033324;28;20106;-64
2021/12/27 00:32:43;;;;;;;24.42;12.32;;;;;;;;;;5052326;28;20060;-64
2021/12/27 00:35:10;;;;;;;21.65;12.75;;;1.30;99.90;;;;;;5050482;28;20051;-64
2021/12/27 00:37:36;;;;;;;19.25;11.77;;;;;;;;;;5050707;28;20037;-64
2021/12/27 00:40:03;;;;;;;21.55;13.32;;;;;;;;;;5051148;28;20036;-64
2021/12/27 00:42:29;;;;;;;21.77;12.50;;;;;;;;;;5032796;28;20173;-64
2021/12/27 00:44:55;;;;;;;26.02;12.55;;;;;;;;;;5030489;28;20117;-64
2021/12/27 00:47:21;;;;;;;21.30;12.73;;;;;;;;;;5048979;28;20039;-65
2021/12/27 00:49:46;;;;;;;20.27;12.30;;;0.60;99.90;;;;;;5050671;28;20399;-64
2021/12/27 00:52:12;;;;;;;19.40;11.65;;;;;;;;;;5050778;28;20024;-64
2021/12/27 00:54:38;;;;;;;24.02;13.45;;;;;;;;;;5051127;28;20565;-65
2021/12/27 00:57:04;;;;;;;21.70;11.40;;;;;;;;;;5034603;28;20040;-64
2021/12/27 00:59:30;;;;;;;21.08;12.65;;;0.60;99.90;;;;;;5050270;28;20044;-64
2021/12/27 01:01:56;;;;;;;22.80;13.13;;;;;;;;;;5033487;28;20123;-65
2021/12/27 01:04:22;;;;;;;23.20;13.48;;;;;;;;;;5049653;28;20655;-64
2021/12/27 01:06:48;;;;;;;23.73;13.98;;;0.80;99.90;;;;;;5050464;28;20037;-65
2021/12/27 01:09:24;;;;;;;21.85;12.50;;;;;;;;;;5048423;28;20044;-65
2021/12/27 01:12:11;;;;;;;21.67;13.50;;;;;;;;;;5050250;28;20037;-64
2021/12/27 01:14:44;;;;;;;21.58;12.63;;;0.80;99.90;;;;;;5050256;28;20051;-64
2021/12/27 01:17:10;;;;;;;23.02;12.68;;;;;;;;;;5049124;28;20403;-64
2021/12/27 01:19:36;;;;;;;21.40;12.23;;;;;;;;;;5050130;28;20549;-65
2021/12/27 01:22:03;;;;;;;22.67;13.75;;;;;;;;;;5049846;28;20033;-65
2021/12/27 01:24:29;;;;;;;21.58;12.85;;;;;;;;;;5049355;28;20132;-64
2021/12/27 01:26:55;;;;;;;22.23;13.52;;;;;;;;;;5050128;28;20112;-65
2021/12/27 01:29:21;;;;;;;22.58;12.98;;;;;;;;;;5049989;28;20051;-64
2021/12/27 01:31:47;;;;;;;22.55;12.77;;;;;;;;;;5049072;28;20043;-64
2021/12/27 01:34:12;;;;;;;20.70;13.45;;;0.90;99.90;;;;;;5049566;28;20495;-65
2021/12/27 01:36:39;;;;;;;19.55;12.65;;;;;;;;;;5049943;28;20391;-64
2021/12/27 01:39:05;;;;;;;19.70;12.82;;;;;;;;;;5049463;28;20056;-64
2021/12/27 01:41:31;;;;;;;24.90;14.30;;;;;;;;;;5049988;28;20075;-65
2021/12/27 01:43:57;;;;;;;23.08;13.45;;;1.00;99.90;;;;;;5049806;28;20072;-65
2021/12/27 01:46:26;;;;;;;23.15;13.43;;;;;;;;;;5049173;28;20037;-65
2021/12/27 01:48:56;;;;;;;22.08;13.35;;;;;;;;;;5049617;28;20443;-65
2021/12/27 01:51:27;;;;;;;22.15;13.02;;;;;;;;;;5047064;28;20095;-65
2021/12/27 01:53:53;;;;;;;21.38;13.48;;;;;;;;;;5049248;28;20040;-65
2021/12/27 01:56:20;;;;;;;22.50;13.45;;;;;;;;;;5048887;28;20055;-65
2021/12/27 01:58:47;;;;;;;22.63;13.60;;;;;;;;;;5049499;28;20041;-65
2021/12/27 02:01:17;;;;;;;21.40;13.65;;;1.60;99.90;;;;;;5049544;28;20040;-65
2021/12/27 02:03:43;;;;;;;22.38;13.48;;;;;;;;;;5031238;28;20048;-65
2021/12/27 02:06:11;;;;;;;20.67;12.18;;;;;;;;;;5047975;28;20416;-65
2021/12/27 02:08:39;;;;;;;24.20;14.93;;;1.30;99.90;;;;;;5031564;28;20041;-65
2021/12/27 02:11:06;;;;;;;23.17;12.82;;;;;;;;;;5049035;28;20116;-65
2021/12/27 02:13:32;;;;;;;23.08;13.65;;;;;;;;;;5049183;28;20040;-65
2021/12/27 02:15:58;;;;;;;23.92;14.80;;;;;;;;;;5048402;28;20162;-65
2021/12/27 02:18:24;;;;;;;23.77;14.20;;;;;;;;;;5049099;28;20511;-65
2021/12/27 02:20:50;;;;;;;23.25;13.43;;;;;;;;;;5048475;28;20037;-65
2021/12/27 02:23:17;;;;;;;22.17;14.18;;;;;;;;;;5049088;28;20392;-65
2021/12/27 02:25:50;;;;;;;20.05;13.02;;;1.10;99.90;;;;;;5048359;28;20131;-65
2021/12/27 02:28:17;;;;;;;23.17;14.05;;;;;;;;;;5049328;28;20044;-65
2021/12/27 02:30:45;;;;;;;19.75;12.85;;;;;;;;;;5048648;28;20115;-65
2021/12/27 02:33:11;;;;;;;23.00;13.50;;;;;;;;;;5048786;28;20576;-65
2021/12/27 02:35:41;;;;;;;24.92;14.13;;;;;;;;;;5048242;28;20049;-65
2021/12/27 02:38:09;;;;;;;22.58;13.02;;;;;;;;;;5049145;28;20487;-65
2021/12/27 02:40:36;;;;;;;23.10;13.73;;;;;;;;;;5048722;28;20045;-65
2021/12/27 02:43:08;;;;;;;24.65;15.07;;;;;;;;;;5048513;28;20033;-64
2021/12/27 02:45:39;;;;;;;20.83;12.73;;;;;;;;;;5047816;28;20079;-65
2021/12/27 02:48:06;;;;;;;23.92;14.00;;;1.00;99.90;;;;;;5048398;28;20399;-65
2021/12/27 02:50:32;;;;;;;22.75;13.57;;;;;;;;;;5048016;28;20090;-65
2021/12/27 02:53:02;;;;;;;24.95;13.55;;;;;;;;;;5030864;28;20049;-64
2021/12/27 02:55:28;;;;;;;21.40;13.50;;;1.20;99.90;;;;;;5042667;28;20092;-65
2021/12/27 02:57:54;;;;;;;24.95;14.45;;;;;;;;;;5048637;28;20032;-65
2021/12/27 03:00:32;;;;;;;22.60;14.57;;;1.00;99.90;;;;;;5047583;28;20029;-64
2021/12/27 03:02:58;;;;;;;22.90;13.60;;;1.30;99.90;;;;;;5048314;28;20040;-65
2021/12/27 03:05:27;;;;;;;22.13;13.93;;;1.30;99.90;;;;;;5047459;28;20045;-65
2021/12/27 03:07:54;;;;;;;22.92;14.50;;;;;;;;;;5048599;28;20120;-65
2021/12/27 03:10:28;;;;;;;21.77;13.10;;;1.40;99.90;;;;;;5048416;28;20117;-65
2021/12/27 03:12:55;;;;;;;20.00;11.75;;;0.90;99.90;;;;;;5048423;28;20461;-65
2021/12/27 03:15:23;;;;;;;21.80;12.93;;;;;;;;;;5047729;28;20037;-65
2021/12/27 03:17:50;;;;;;;26.27;14.82;;;;;;;;;;5049040;28;20041;-65
2021/12/27 03:20:17;;;;;;;23.50;13.70;;;;;;;;;;5030317;28;20127;-65
2021/12/27 03:22:43;;;;;;;23.73;13.68;;;;;;;;;;5048154;28;20041;-65
2021/12/27 03:25:11;;;;;;;23.00;13.40;;;;;;;;;;5047708;28;20041;-65
2021/12/27 03:27:37;;;;;;;23.52;14.80;;;1.40;99.90;;;;;;5048127;28;20041;-65
2021/12/27 03:30:08;;;;;;;21.70;13.63;;;1.50;99.90;;;;;;5048456;28;20032;-65
2021/12/27 03:32:36;;;;;;;22.42;14.02;;;1.40;99.90;;;;;;5048244;28;20044;-66
2021/12/27 03:35:08;;;;;;;23.98;14.60;;;;;;;;;;5047882;28;20033;-66
2021/12/27 03:37:35;;;;;;;20.15;13.30;;;;;;;;;;5048313;28;20084;-65
2021/12/27 03:40:02;;;;;;;21.70;14.13;;;;;;;;;;5048516;28;20048;-66
2021/12/27 03:42:28;;;;;;;21.13;13.57;;;;;;;;;;5048381;28;20041;-66
2021/12/27 03:44:54;;;;;;;24.33;14.07;;;;;;;;;;5048169;28;20048;-66
2021/12/27 03:47:19;;;;;;;23.08;13.95;;;1.40;99.90;;;;;;5029843;28;20033;-65
2021/12/27 03:49:45;;;;;;;24.30;14.90;;;1.40;99.90;;;;;;5047550;28;20029;-66
2021/12/27 03:52:11;;;;;;;22.70;14.80;;;;;;;;;;5030073;28;20069;-65
2021/12/27 03:54:37;;;;;;;23.58;13.90;;;;;;;;;;5047849;28;20033;-66
2021/12/27 03:57:03;;;;;;;23.15;14.55;;;;;;;;;;5048007;28;20638;-66
2021/12/27 04:00:43;;;;;;;22.00;14.15;;;;;;;;;;5048530;28;20586;-66
2021/12/27 04:02:24;;;;;;;25.35;14.40;;;1.40;99.90;;;;;;5037919;28;20051;-66
2021/12/27 04:04:50;;;;;;;26.88;15.30;;;;;;;;;;5033596;28;20033;-66
2021/12/27 04:07:16;;;;;;;23.88;14.23;;;;;;;;;;5051670;28;20057;-66
2021/12/27 04:09:42;;;;;;;27.10;15.88;;;;;;;;;;5051403;28;20662;-66
2021/12/27 04:12:08;;;;;;;25.08;15.07;;;;;;;;;;5034012;28;20037;-66
2021/12/27 04:14:34;;;;;;;22.98;14.57;;;;;;;;;;5050970;28;20689;-66
2021/12/27 04:17:00;;;;;;;24.80;14.75;;;;;;;;;;5051375;28;20495;-66
2021/12/27 04:19:25;;;;;;;24.83;15.25;;;1.50;99.90;;;;;;5050759;28;20112;-66
2021/12/27 04:21:51;;;;;;;24.52;15.13;;;;;;;;;;5051507;28;22332;-66
2021/12/27 04:24:17;;;;;;;25.00;15.45;;;1.50;99.90;;;;;;5050867;28;20061;-67
2021/12/27 04:26:43;;;;;;;24.63;15.48;;;;;;;;;;5050794;28;20068;-66
2021/12/27 04:29:09;;;;;;;24.38;14.85;;;;;;;;;;5051083;28;20040;-66
2021/12/27 04:31:35;;;;;;;26.25;16.23;;;;;;;;;;5051445;28;20032;-66
2021/12/27 04:34:01;;;;;;;26.80;16.20;;;;;;;;;;5050741;28;20037;-66
2021/12/27 04:36:27;;;;;;;27.50;16.75;;;;;;;;;;5051088;28;20589;-66
2021/12/27 04:38:52;;;;;;;29.45;16.83;;;1.40;99.90;;;;;;5050830;28;20043;-66
2021/12/27 04:41:20;;;;;;;31.65;17.25;;;;;;;;;;5051519;28;20095;-67
2021/12/27 04:43:46;;;;;;;27.50;16.55;;;;;;;;;;5050538;28;20047;-66
2021/12/27 04:46:12;;;;;;;26.08;16.80;;;;;;;;;;5050499;28;20344;-67
2021/12/27 04:48:38;;;;;;;31.42;18.35;;;;;;;;;;5050635;28;20044;-67
2021/12/27 04:51:04;;;;;;;28.77;17.25;;;;;;;;;;5050938;28;20040;-67
2021/12/27 04:53:29;;;;;;;26.83;16.83;;;1.60;99.90;;;;;;5051220;28;20483;-67
2021/12/27 04:55:55;;;;;;;27.90;17.30;;;;;;;;;;5050883;28;20052;-67
2021/12/27 04:58:22;;;;;;;27.67;17.55;;;1.30;99.90;;;;;;5051154;28;20037;-66
2021/12/27 05:00:49;;;;;;;28.08;16.90;;;;;;;;;;5050518;28;20103;-67
2021/12/27 05:03:15;;;;;;;31.00;19.95;;;1.30;99.90;;;;;;5050624;28;20090;-67
2021/12/27 05:05:44;;;;;;;28.48;17.98;;;;;;;;;;5031955;28;20042;-67
2021/12/27 05:08:10;;;;;;;29.88;18.42;;;;;;;;;;5033098;28;20044;-67
2021/12/27 05:10:36;;;;;;;31.38;19.02;;;;;;;;;;5050091;28;20064;-67
2021/12/27 05:13:03;;;;;;;31.20;18.27;;;;;;;;;;5050193;28;20041;-67
2021/12/27 05:15:29;;;;;;;30.83;19.55;;;;;;;;;;5069585;22;20471;-60
2021/12/27 05:17:55;;;;;;;30.20;19.05;;;;;;;;;;5069756;28;20064;-60
2021/12/27 05:20:21;;;;;;;30.10;18.83;;;;;;;;;;5069475;28;20036;-60
2021/12/27 05:22:47;;;;;;;33.80;19.35;;;;;;;;;;5069643;28;20032;-59
2021/12/27 05:25:16;;;;;;;32.95;18.70;;;;;;;;;;5069247;28;20032;-60
2021/12/27 05:27:45;;;;;;;32.53;18.27;;;1.40;99.90;;;;;;5069721;28;20044;-60
2021/12/27 05:30:12;;;;;;;30.70;18.77;;;;;;;;;;5069473;28;20590;-60
2021/12/27 05:32:41;;;;;;;31.45;19.05;;;;;;;;;;5070230;28;20040;-60
2021/12/27 05:35:11;;;;;;;27.95;17.88;;;1.50;99.90;;;;;;5051508;28;20040;-60
2021/12/27 05:37:37;;;;;;;34.72;19.95;;;;;;;;;;5070262;28;20059;-60
2021/12/27 05:40:06;;;;;;;29.63;18.65;;;;;;;;;;5069942;28;20597;-61
2021/12/27 05:42:33;;;;;;;35.30;20.00;;;;;;;;;;5068833;28;20048;-60
2021/12/27 05:44:59;;;;;;;35.88;19.52;;;1.50;99.90;;;;;;5068889;28;20040;-60
2021/12/27 05:47:25;;;;;;;32.25;19.95;;;;;;;;;;5051360;28;20154;-60
2021/12/27 05:49:52;;;;;;;29.13;19.05;;;;;;;;;;5069450;28;20056;-60
2021/12/27 05:52:18;;;;;;;32.38;18.85;;;;;;;;;;5069422;28;20032;-61
2021/12/27 05:54:44;;;;;;;32.75;18.52;;;1.60;99.90;;;;;;5051181;28;20056;-61
2021/12/27 05:57:10;;;;;;;32.70;19.52;;;;;;;;;;5069022;28;20593;-59
2021/12/27 05:59:36;;;;;;;30.75;20.20;;;;;;;;;;5068747;28;20044;-61
2021/12/27 06:02:04;;;;;;;30.85;19.67;;;1.40;99.90;;;;;;5069695;28;20032;-61
2021/12/27 06:04:30;;;;;;;32.85;20.45;;;;;;;;;;5068563;28;20035;-61
2021/12/27 06:06:56;;;;;;;30.92;20.10;;;;;;;;;;5050678;28;20135;-60
2021/12/27 06:09:22;;;;;;;34.13;20.98;;;;;;;;;;5051293;28;20033;-60
2021/12/27 06:11:48;;;;;;;37.70;19.15;;;;;;;;;;5067220;28;20056;-60
2021/12/27 06:14:14;;;;;;;30.88;19.38;;;;;;;;;;5067953;28;20923;-60
2021/12/27 06:16:40;;;;;;;31.48;19.52;;;;;;;;;;5067700;28;20037;-59
2021/12/27 06:19:06;;;;;;;37.55;20.27;;;;;;;;;;5068336;28;20041;-60
2021/12/27 06:21:33;;;;;;;34.38;20.05;;;;;;;;;;5068388;28;20166;-61
2021/12/27 06:24:00;;;;;;;33.22;19.80;;;;;;;;;;5067861;28;20040;-61
2021/12/27 06:26:27;;;;;;;32.25;19.73;;;;;;;;;;5067356;28;20040;-61
2021/12/27 06:28:52;;;;;;;29.70;18.33;;;1.60;99.90;;;;;;5068438;28;20036;-60
2021/12/27 06:31:19;;;;;;;37.13;19.58;;;1.50;99.90;;;;;;5068636;28;20464;-60
2021/12/27 06:33:46;;;;;;;35.50;18.85;;;;;;;;;;5067867;28;20059;-61
2021/12/27 06:36:12;;;;;;;38.65;21.08;;;;;;;;;;5067785;28;20048;-61
2021/12/27 06:38:38;;;;;;;31.30;19.35;;;;;;;;;;5067544;28;20037;-60
2021/12/27 06:41:04;;;;;;;29.10;17.67;;;;;;;;;;5067972;28;20115;-61
2021/12/27 06:43:30;;;;;;;36.33;20.38;;;;;;;;;;5067829;28;20131;-61
2021/12/27 06:45:57;;;;;;;33.67;19.25;;;;;;;;;;5067551;28;20044;-59
2021/12/27 06:48:23;;;;;;;32.75;19.40;;;1.70;99.90;;;;;;5068428;28;20090;-61
2021/12/27 06:50:49;;;;;;;34.95;19.88;;;;;;;;;;5067880;28;20028;-61
2021/12/27 06:53:16;;;;;;;39.72;20.75;;;;;;;;;;5068561;28;20106;-60
2021/12/27 06:55:43;;;;;;;37.33;20.10;;;;;;;;;;5066176;28;20040;-61
2021/12/27 06:58:09;;;;;;;37.00;20.90;;;;;;;;;;5067409;28;20044;-61
2021/12/27 07:00:37;;;;;;;36.15;21.42;;;1.80;99.90;;;;;;5066269;28;20052;-60
2021/12/27 07:03:03;;;;;;;35.40;20.08;;;;;;;;;;5067989;28;20055;-59
2021/12/27 07:05:30;;;;;;;36.10;20.98;;;;;;;;;;5067214;28;20060;-61
2021/12/27 07:07:56;;;;;;;36.75;21.05;;;;;;;;;;5068506;28;20055;-61
2021/12/27 07:10:22;;;;;;;41.88;23.25;;;;;;;;;;5068050;28;20138;-61
2021/12/27 07:12:48;;;;;;;37.60;19.48;;;;;;;;;;5050344;28;20689;-61
2021/12/27 07:15:14;;;;;;;34.85;19.35;;;;;;;;;;5067640;28;20044;-60
2021/12/27 07:17:41;;;;;;;40.42;21.15;;;;;;;;;;5060494;28;20426;-60
2021/12/27 07:20:07;;;;;;;38.67;21.13;;;;;;;;;;5065074;28;20052;-61
2021/12/27 07:22:34;;;;;;;36.25;20.10;;;1.60;99.90;;;;;;5067102;28;20431;-61
2021/12/27 07:25:00;;;;;;;36.97;20.67;;;;;;;;;;5067528;28;20032;-60
2021/12/27 07:27:26;;;;;;;38.85;20.55;;;1.70;99.90;;;;;;5067792;28;20040;-60
2021/12/27 07:29:53;;;;;;;41.40;23.27;;;1.70;99.90;;;;;;5068665;28;20490;-61
2021/12/27 07:32:22;;;;;;;41.70;21.25;;;;;;;;;;5068484;28;20043;-61
2021/12/27 07:34:48;;;;;;;39.70;21.13;;;;;;;;;;5067966;28;20032;-61
2021/12/27 07:37:16;;;;;;;44.75;21.63;;;1.60;99.90;;;;;;5071203;28;20119;-60
2021/12/27 07:39:42;;;;;;;37.63;20.35;;;;;;;;;;5072298;28;20033;-61
2021/12/27 07:42:11;;;;;;;39.40;23.02;;;;;;;;;;5045509;28;20044;-61
2021/12/27 07:44:37;;;;;;;38.60;20.52;;;1.70;99.90;;;;;;5065038;28;20391;-61
2021/12/27 07:47:03;;;;;;;49.75;22.48;;;1.70;99.90;;;;;;5070341;28;20035;-60
2021/12/27 07:49:29;;;;;;;44.97;22.65;;;;;;;;;;5071261;28;20043;-60
2021/12/27 07:51:55;;;;;;;37.95;21.50;;;;;;;;;;5070656;28;20044;-61
2021/12/27 07:54:21;;;;;;;43.45;22.73;;;;;;;;;;5069523;28;20040;-60
2021/12/27 07:56:47;;;;;;;45.30;24.05;;;;;;;;;;5067758;28;20051;-61
2021/12/27 07:59:13;;;;;;;48.00;23.73;;;;;;;;;;5067843;28;20079;-60
2021/12/27 08:01:41;;;;;;;51.60;24.42;;;;;;;;;;5066416;28;20051;-60
2021/12/27 08:04:08;;;;;;;53.40;24.80;;;;;;;;;;5068906;28;20071;-61
2021/12/27 08:06:35;;;;;;;52.95;25.55;;;;;;;;;;5069368;28;20119;-60
2021/12/27 08:09:01;;;;;;;51.28;24.98;;;;;;;;;;5057025;28;20333;-61
2021/12/27 08:11:27;;;;;;;49.40;24.67;;;;;;;;;;5069299;28;20037;-61
2021/12/27 08:13:53;;;;;;;46.28;23.65;;;1.80;99.90;;;;;;5061552;28;20040;-60
2021/12/27 08:16:23;;;;;;;46.72;24.17;;;;;;;;;;5053914;28;20040;-61
2021/12/27 08:18:50;;;;;;;55.63;26.88;;;;;;;;;;5073005;28;20059;-60
2021/12/27 08:21:16;;;;;;;47.85;24.55;;;1.90;99.90;;;;;;5073114;28;20067;-60
2021/12/27 08:23:42;;;;;;;49.53;23.27;;;;;;;;;;5051210;28;20041;-61
2021/12/27 08:26:08;;;;;;;50.28;26.35;;;;;;;;;;5051916;28;20032;-61
2021/12/27 08:28:34;;;;;;;56.92;25.13;;;1.80;99.90;;;;;;5051659;28;20130;-61
2021/12/27 08:31:00;;;;;;;53.58;25.92;;;;;;;;;;5067746;28;20123;-60
2021/12/27 08:33:26;;;;;;;52.35;25.92;;;;;;;;;;5069969;28;20040;-59
2021/12/27 08:35:52;;;;;;;50.88;24.17;;;;;;;;;;5073057;28;20127;-60
2021/12/27 08:38:18;;;;;;;61.50;25.95;;;;;;;;;;5069017;28;20048;-60
2021/12/27 08:40:44;;;;;;;61.88;26.98;;;;;;;;;;5066757;28;20119;-59
2021/12/27 08:43:10;;;;;;;52.20;25.88;;;;;;;;;;5052191;28;20044;-61
2021/12/27 08:45:36;;;;;;;53.22;24.55;;;;;;;;;;5071225;28;20036;-60
2021/12/27 08:48:02;;;;;;;54.63;26.33;;;;;;;;;;5061614;28;20029;-60
2021/12/27 08:50:29;;;;;;;57.67;26.55;;;;;;;;;;5061280;28;20029;-61
2021/12/27 08:52:55;;;;;;;62.75;27.10;;;;;;;;;;5063615;28;20041;-61
2021/12/27 08:55:21;;;;;;;65.07;25.90;;;;;;;;;;5064548;28;20514;-60
2021/12/27 08:57:47;;;;;;;53.03;25.67;;;;;;;;;;5061556;28;20066;-61
2021/12/27 09:00:15;;;;;;;62.72;25.23;;;2.60;99.90;;;;;;5048023;28;20055;-60
2021/12/27 09:02:41;;;;;;;56.67;26.25;;;;;;;;;;5066930;28;20045;-60
2021/12/27 09:05:08;;;;;;;56.63;26.45;;;;;;;;;;5063342;28;20177;-61
2021/12/27 09:07:34;;;;;;;72.88;30.67;;;;;;;;;;5065312;28;20055;-61
2021/12/27 09:10:00;;;;;;;54.00;25.95;;;;;;;;;;5067715;28;20032;-61
2021/12/27 09:12:26;;;;;;;63.40;25.83;;;;;;;;;;5053654;28;20078;-60
2021/12/27 09:14:52;;;;;;;63.70;26.48;;;;;;;;;;5069104;28;20040;-61
2021/12/27 09:17:18;;;;;;;56.35;24.83;;;;;;;;;;5049817;28;20520;-61
2021/12/27 09:19:44;;;;;;;65.65;26.10;;;;;;;;;;5049537;28;20533;-61
2021/12/27 09:22:13;;;;;;;60.70;25.88;;;;;;;;;;5065555;28;20636;-61
2021/12/27 09:24:39;;;;;;;63.63;25.67;;;;;;;;;;5066824;28;20127;-60
2021/12/27 09:27:05;;;;;;;54.65;27.67;;;;;;;;;;5067488;28;20036;-61
2021/12/27 09:29:31;;;;;;;59.33;25.67;;;;;;;;;;5066057;28;20093;-59
2021/12/27 09:31:57;;;;;;;58.90;25.33;;;;;;;;;;5068700;28;20357;-61
2021/12/27 09:34:23;;;;;;;63.58;27.30;;;;;;;;;;5065551;28;20037;-61
2021/12/27 09:36:49;;;;;;;53.45;24.55;;;;;;;;;;5065831;28;20052;-61
2021/12/27 09:39:16;;;;;;;62.25;26.88;;;;;;;;;;5071489;28;20040;-61
2021/12/27 09:41:42;;;;;;;57.72;25.58;;;;;;;;;;5048538;28;20036;-61
2021/12/27 09:44:08;;;;;;;55.88;25.08;;;;;;;;;;5071055;28;20402;-61
2021/12/27 09:46:34;;;;;;;54.90;23.58;;;;;;;;;;5068619;28;20094;-61
2021/12/27 09:49:01;;;;;;;60.60;26.52;;;;;;;;;;5066938;28;20040;-61
2021/12/27 09:51:28;;;;;;;53.22;24.17;;;2.60;99.90;;;;;;5066725;28;20070;-60
2021/12/27 09:53:54;;;;;;;58.78;23.50;;;;;;;;;;5062031;28;20047;-61
2021/12/27 09:56:20;;;;;;;49.05;25.17;;;;;;;;;;5067207;28;20041;-61
2021/12/27 09:58:47;;;;;;;65.20;26.42;;;;;;;;;;5068557;28;20051;-61
2021/12/27 10:01:13;;;;;;;54.72;23.50;;;;;;;;;;5069065;28;20120;-61
2021/12/27 10:03:56;;;;;;;58.95;24.65;;;;;;;;;;5048034;28;20383;-61
2021/12/27 10:06:22;;;;;;;51.78;23.23;;;;;;;;;;5047222;28;20036;-60
2021/12/27 10:08:53;;;;;;;52.20;24.23;;;;;;;;;;5063022;28;20382;-61
2021/12/27 10:11:20;;;;;;;55.38;24.63;;;;;;;;;;5062483;28;20037;-61
2021/12/27 10:14:07;;;;;;;53.53;22.85;;;;;;;;;;5044787;28;20044;-60
2021/12/27 10:16:35;;;;;;;49.78;23.08;;;;;;;;;;5059056;28;20040;-61
2021/12/27 10:19:02;;;;;;;51.47;24.52;;;;;;;;;;5063337;28;20117;-60
2021/12/27 10:21:29;;;;;;;54.10;23.67;;;;;;;;;;5063332;28;20520;-61
2021/12/27 10:24:05;;;;;;;50.17;22.60;;;;;;;;;;5062470;28;20122;-61
2021/12/27 10:26:31;;;;;;;55.75;24.02;;;;;;;;;;5045927;28;20059;-61
2021/12/27 10:29:27;;;;;;;46.90;22.63;;;3.10;99.90;;;;;;5065111;28;20313;-61
2021/12/27 10:32:10;;;;;;;56.10;23.92;;;;;;;;;;5039406;28;20105;-60
2021/12/27 10:34:43;;;;;;;55.08;23.70;;;;;;;;;;5064942;28;20048;-61
2021/12/27 10:37:12;;;;;;;59.17;22.58;;;;;;;;;;5039926;28;20056;-61
2021/12/27 10:39:44;;;;;;;49.35;22.23;;;;;;;;;;5063039;28;20045;-61
2021/12/27 10:42:13;;;;;;;48.58;23.75;;;;;;;;;;5056536;28;20068;-60
2021/12/27 10:44:41;;;;;;;49.80;22.20;;;;;;;;;;5054786;28;20041;-61
2021/12/27 10:47:27;;;;;;;49.22;21.35;;;;;;;;;;5057071;28;20040;-61
2021/12/27 10:49:54;;;;;;;43.78;22.17;;;;;;;;;;5063777;28;20113;-61
2021/12/27 10:52:39;;;;;;;48.03;22.65;;;;;;;;;;5060339;28;20079;-61
2021/12/27 10:55:06;;;;;;;47.25;23.42;;;;;;;;;;5066512;28;20414;-61
2021/12/27 10:57:32;;;;;;;44.08;21.17;;;3.40;99.90;;;;;;5070457;28;20033;-61
2021/12/27 11:00:14;;;;;;;52.30;22.45;;;3.10;99.90;;;;;;5064443;28;20570;-60
2021/12/27 11:02:40;;;;;;;42.17;20.20;;;;;;;;;;5056301;28;20048;-61
2021/12/27 11:05:14;;;;;;;50.60;24.05;;;4.10;99.90;;;;;;5051768;28;20037;-61
2021/12/27 11:07:41;;;;;;;43.38;21.65;;;;;;;;;;5042049;28;20457;-61
2021/12/27 11:10:07;;;;;;;57.55;22.55;;;3.60;99.90;;;;;;5056872;28;20550;-62
2021/12/27 11:12:33;;;;;;;47.15;21.60;;;;;;;;;;5053207;28;20120;-61
2021/12/27 11:14:59;;;;;;;48.97;22.35;;;;;;;;;;5063706;22;20045;-72
2021/12/27 11:17:25;;;;;;;45.40;21.73;;;;;;;;;;5039571;28;20473;-72
2021/12/27 11:19:51;;;;;;;54.67;24.13;;;;;;;;;;5009528;28;20511;-71
2021/12/27 11:22:17;;;;;;;46.92;21.30;;;;;;;;;;5009331;28;20029;-71
2021/12/27 11:24:44;;;;;;;48.08;22.42;;;;;;;;;;5020711;28;20472;-72
2021/12/27 11:27:11;;;;;;;54.92;23.08;;;;;;;;;;4997761;28;20041;-71
2021/12/27 11:29:37;;;;;;;43.95;21.92;;;;;;;;;;5004491;28;20034;-72
2021/12/27 11:32:16;;;;;;;55.13;23.00;;;;;;;;;;5000087;28;20125;-71
2021/12/27 11:34:55;;;;;;;39.42;21.00;;;;;;;;;;5039861;28;20052;-71
2021/12/27 11:37:21;;;;;;;43.33;20.75;;;;;;;;;;5056642;28;20045;-71
2021/12/27 11:39:47;;;;;;;43.70;20.20;;;;;;;;;;5010071;28;20041;-72
2021/12/27 11:42:18;;;;;;;47.13;21.55;;;;;;;;;;5035677;28;20053;-72
2021/12/27 11:44:56;;;;;;;41.40;19.63;;;;;;;;;;5023611;28;20045;-72
2021/12/27 11:47:23;;;;;;;40.13;21.33;;;;;;;;;;5016719;28;20053;-71
2021/12/27 11:49:52;;;;;;;45.33;20.27;;;;;;;;;;5005059;28;20034;-72
2021/12/27 11:52:49;;;;;;;36.75;20.58;;;4.10;99.90;;;;;;4994519;28;20056;-72
2021/12/27 11:55:20;;;;;;;45.92;20.08;;;;;;;;;;5033836;28;20049;-72
2021/12/27 11:57:47;;;;;;;47.00;21.15;;;3.90;99.90;;;;;;5039029;28;20040;-72
2021/12/27 12:00:16;;;;;;;46.15;20.35;;;3.60;99.90;;;;;;5039399;28;20045;-72
2021/12/27 12:02:42;;;;;;;44.95;21.63;;;;;;;;;;5039314;28;20123;-72
2021/12/27 12:05:08;;;;;;;44.47;20.25;;;;;;;;;;5038737;28;20068;-72
2021/12/27 12:07:34;;;;;;;43.67;20.95;;;;;;;;;;5039168;28;20044;-72
2021/12/27 12:10:00;;;;;;;47.78;21.05;;;;;;;;;;5039117;28;20562;-72
2021/12/27 12:12:28;;;;;;;43.72;21.55;;;;;;;;;;5056613;28;20132;-72
2021/12/27 12:14:55;;;;;;;47.75;21.85;;;;;;;;;;5056676;28;20505;-72
2021/12/27 12:17:41;;;;;;;43.47;21.20;;;4.60;99.90;;;;;;5022162;28;20041;-72
2021/12/27 12:20:36;;;;;;;47.05;20.90;;;3.90;99.90;;;;;;5038942;28;20122;-72
2021/12/27 12:23:07;;;;;;;40.58;19.80;;;;;;;;;;5027784;28;20525;-72
2021/12/27 12:25:34;;;;;;;53.67;21.00;;;;;;;;;;5035250;28;20056;-72
2021/12/27 12:28:03;;;;;;;52.05;22.88;;;;;;;;;;5035455;28;20051;-72
2021/12/27 12:30:35;;;;;;;44.08;20.67;;;4.00;99.90;;;;;;5036149;28;20059;-72
2021/12/27 12:33:06;;;;;;;51.08;23.20;;;3.60;99.90;;;;;;5053495;28;20044;-72
2021/12/27 12:35:35;;;;;;;52.55;21.95;;;4.50;99.90;;;;;;5034995;28;20167;-72
2021/12/27 12:38:10;;;;;;;50.03;21.63;;;;;;;;;;5053885;28;20072;-72
2021/12/27 12:40:36;;;;;;;53.88;22.35;;;;;;;;;;5053592;28;20043;-72
2021/12/27 12:43:02;;;;;;;60.88;23.92;;;;;;;;;;5035295;28;20033;-72
2021/12/27 12:45:32;;;;;;;59.92;24.73;;;;;;;;;;5034596;28;20094;-72
2021/12/27 12:47:58;;;;;;;47.35;20.80;;;;;;;;;;5018948;28;20044;-72
2021/12/27 12:50:24;;;;;;;50.47;22.83;;;;;;;;;;5039809;22;20072;-57
2021/12/27 12:52:54;;;;;;;45.80;21.25;;;;;;;;;;5034891;28;20498;-56
2021/12/27 12:55:23;;;;;;;52.53;21.88;;;;;;;;;;5051904;28;20064;-57
2021/12/27 12:57:50;;;;;;;51.58;22.92;;;;;;;;;;5067586;28;20032;-59
2021/12/27 13:00:21;;;;;;;48.58;22.90;;;;;;;;;;5072928;28;20059;-56
2021/12/27 13:02:47;;;;;;;58.35;23.70;;;3.90;99.90;;;;;;5072191;28;20064;-57
2021/12/27 13:05:15;;;;;;;63.38;24.77;;;4.10;99.90;;;;;;5071770;28;20086;-57
2021/12/27 13:07:45;;;;;;;53.15;22.70;;;;;;;;;;5072753;28;20230;-57
2021/12/27 13:10:17;;;;;;;51.08;22.33;;;;;;;;;;5072353;28;20056;-58
2021/12/27 13:12:43;;;;;;;46.50;20.73;;;;;;;;;;5072412;28;20047;-58
2021/12/27 13:15:11;;;;;;;67.78;25.90;;;;;;;;;;5071128;28;20040;-58
2021/12/27 13:17:37;;;;;;;61.63;23.88;;;;;;;;;;5072282;28;20159;-58
2021/12/27 13:20:08;;;;;;;58.53;24.08;;;3.90;99.90;;;;;;5054282;28;20113;-57
2021/12/27 13:22:46;;;;;;;60.60;23.98;;;;;;;;;;5071504;28;20092;-58
2021/12/27 13:25:14;;;;;;;69.80;25.75;;;4.10;99.90;;;;;;5071795;28;20499;-57
2021/12/27 13:27:40;;;;;;;63.47;24.05;;;;;;;;;;5071771;28;20375;-57
2021/12/27 13:30:08;;;;;;;67.43;25.23;;;;;;;;;;5071557;28;20040;-57
2021/12/27 13:32:34;;;;;;;71.00;26.83;;;;;;;;;;5071872;28;20059;-58
2021/12/27 13:35:01;;;;;;;52.47;23.08;;;;;;;;;;5071170;28;20406;-58
2021/12/27 13:37:27;;;;;;;66.72;25.75;;;;;;;;;;5072032;28;20036;-58
2021/12/27 13:40:10;;;;;;;64.28;24.90;;;;;;;;;;5053439;28;20039;-58
2021/12/27 13:42:36;;;;;;;61.55;23.92;;;4.10;99.90;;;;;;5069786;28;20154;-57
2021/12/27 13:45:08;;;;;;;59.22;24.10;;;;;;;;;;5069745;28;20072;-57
2021/12/27 13:47:34;;;;;;;57.78;24.55;;;;;;;;;;5071726;28;20036;-58
2021/12/27 13:50:01;;;;;;;67.60;27.83;;;;;;;;;;5053573;28;20487;-57
2021/12/27 13:52:27;;;;;;;71.75;25.77;;;4.20;99.90;;;;;;5053424;28;20502;-58
2021/12/27 13:54:53;;;;;;;74.38;27.80;;;4.20;99.90;;;;;;5070173;28;20033;-57
2021/12/27 13:57:40;;;;;;;58.75;24.45;;;;;;;;;;5071513;28;20380;-57